Time;durP1;ratioP1;P1;durP2;ratioP2;P2;SDS_P1;SDS_P2;PMS_P1;PMS_P2;Temp;Humidity;BMP_temperature;BMP_pressure;BME280_temperature;BME280_humidity;BME280_pressure;Samples;Min_cycle;Max_cycle;Signal;HPM_P1;HPM_P2
2023/03/17 00:00:03;;;;;;;5.90;2.40;;;8.00;98.80;;;;;;4213058;28;20056;-83
2023/03/17 00:02:05;;;;;;;4.25;1.83;;;8.00;98.70;;;;;;4231200;28;20051;-83
2023/03/17 00:04:10;;;;;;;6.95;2.10;;;8.00;98.70;;;;;;4231155;28;20065;-83
2023/03/17 00:06:20;;;;;;;4.28;2.22;;;8.10;98.60;;;;;;4231088;28;20118;-83
2023/03/17 00:08:31;;;;;;;4.03;2.10;;;8.10;98.60;;;;;;4229360;28;20040;-83
2023/03/17 00:10:32;;;;;;;4.55;2.03;;;8.10;98.60;;;;;;4215225;28;20446;-83
2023/03/17 00:12:32;;;;;;;6.55;2.13;;;8.10;98.60;;;;;;4180310;28;20100;-83
2023/03/17 00:14:33;;;;;;;3.17;2.15;;;8.10;98.70;;;;;;4214081;28;20052;-83
2023/03/17 00:16:38;;;;;;;3.50;1.65;;;8.00;98.60;;;;;;4214254;28;20044;-83
2023/03/17 00:18:40;;;;;;;3.58;1.95;;;8.10;98.60;;;;;;4179767;28;20114;-83
2023/03/17 00:20:42;;;;;;;7.25;2.22;;;8.10;98.50;;;;;;4214254;28;20488;-83
2023/03/17 00:22:44;;;;;;;5.90;2.55;;;8.10;98.60;;;;;;4195806;28;20052;-83
2023/03/17 00:24:45;;;;;;;5.50;2.05;;;8.10;98.50;;;;;;4180329;28;20051;-83
2023/03/17 00:26:47;;;;;;;3.67;2.22;;;8.10;98.50;;;;;;4215977;28;20052;-83
2023/03/17 00:28:49;;;;;;;3.80;1.77;;;8.10;98.50;;;;;;4182190;28;20128;-83
2023/03/17 00:30:57;;;;;;;3.53;2.10;;;8.10;98.40;;;;;;4214316;28;20051;-84
2023/03/17 00:32:58;;;;;;;5.47;2.58;;;8.20;98.40;;;;;;4196643;28;20080;-84
2023/03/17 00:34:59;;;;;;;5.00;1.98;;;8.20;98.50;;;;;;4196283;28;20532;-84
2023/03/17 00:37:00;;;;;;;2.92;2.08;;;8.10;98.40;;;;;;4179415;28;20099;-84
2023/03/17 00:39:02;;;;;;;4.25;1.98;;;8.10;98.30;;;;;;4214632;28;20484;-85
2023/03/17 00:41:03;;;;;;;5.68;1.90;;;8.10;98.30;;;;;;4214208;28;20444;-85
2023/03/17 00:43:04;;;;;;;3.30;2.03;;;8.20;98.30;;;;;;4179801;28;20110;-85
2023/03/17 00:45:05;;;;;;;4.38;2.20;;;8.10;98.20;;;;;;4214743;28;20094;-83
2023/03/17 00:47:08;;;;;;;3.50;2.22;;;8.20;98.30;;;;;;4179406;28;20052;-83
2023/03/17 00:49:20;;;;;;;4.05;2.45;;;8.20;98.10;;;;;;4179583;28;20052;-84
2023/03/17 00:51:22;;;;;;;3.88;1.98;;;8.20;98.10;;;;;;4196007;28;20064;-84
2023/03/17 00:53:23;;;;;;;3.10;1.95;;;8.20;98.10;;;;;;4215297;28;20506;-83
2023/03/17 00:55:25;;;;;;;5.22;2.35;;;7.40;97.90;;;;;;4234185;28;20123;-84
2023/03/17 00:57:26;;;;;;;2.35;1.77;;;8.20;98.00;;;;;;4215777;28;20139;-83
2023/03/17 00:59:34;;;;;;;4.40;2.00;;;8.20;98.00;;;;;;4234135;28;20043;-83
2023/03/17 01:01:35;;;;;;;3.33;1.70;;;8.20;98.00;;;;;;4199334;28;20049;-83
2023/03/17 01:03:36;;;;;;;7.45;2.33;;;8.20;98.00;;;;;;4221604;28;20043;-83
2023/03/17 01:05:38;;;;;;;3.55;2.30;;;8.10;97.90;;;;;;4196180;28;20055;-83
2023/03/17 01:07:39;;;;;;;16.55;2.65;;;8.20;97.80;;;;;;4199160;28;20094;-83
2023/03/17 01:09:42;;;;;;;3.33;2.05;;;8.20;97.80;;;;;;4216921;28;20036;-84
2023/03/17 01:11:44;;;;;;;3.17;1.80;;;8.20;97.80;;;;;;4216934;28;20068;-83
2023/03/17 01:13:45;;;;;;;4.13;1.80;;;8.20;97.70;;;;;;4198733;28;20134;-83
2023/03/17 01:15:48;;;;;;;2.70;1.80;;;8.20;97.70;;;;;;4217143;28;20040;-83
2023/03/17 01:17:49;;;;;;;4.20;1.80;;;7.60;97.50;;;;;;4198652;28;20057;-83
2023/03/17 01:19:50;;;;;;;6.20;2.22;;;8.20;97.50;;;;;;4217140;28;20040;-83
2023/03/17 01:21:51;;;;;;;3.97;2.08;;;8.20;97.70;;;;;;4182157;28;20051;-83
2023/03/17 01:23:52;;;;;;;5.95;2.25;;;8.20;97.60;;;;;;4195153;28;20416;-84
2023/03/17 01:25:53;;;;;;;4.78;1.88;;;8.20;97.60;;;;;;4233468;28;20044;-84
2023/03/17 01:27:58;;;;;;;4.35;1.92;;;8.20;97.50;;;;;;4233305;28;20048;-83
2023/03/17 01:30:01;;;;;;;4.18;2.15;;;8.30;97.40;;;;;;4233650;28;20047;-84
2023/03/17 01:32:03;;;;;;;4.88;1.98;;;8.30;97.30;;;;;;4232876;28;20085;-83
2023/03/17 01:34:04;;;;;;;4.93;2.20;;;8.30;97.40;;;;;;4233197;28;20055;-83
2023/03/17 01:36:08;;;;;;;6.20;2.33;;;8.30;97.40;;;;;;4198344;28;20493;-83
2023/03/17 01:38:09;;;;;;;4.90;2.30;;;8.30;97.20;;;;;;4214902;28;20427;-83
2023/03/17 01:40:16;;;;;;;3.78;2.00;;;8.30;97.30;;;;;;4204692;28;20045;-83
2023/03/17 01:42:17;;;;;;;3.75;2.45;;;8.20;97.30;;;;;;4216068;28;20052;-83
2023/03/17 01:44:18;;;;;;;5.15;2.58;;;8.20;97.40;;;;;;4215886;28;20123;-83
2023/03/17 01:46:26;;;;;;;2.92;2.03;;;8.20;97.30;;;;;;4198865;28;20131;-83
2023/03/17 01:48:29;;;;;;;2.63;1.90;;;8.20;97.20;;;;;;4217006;28;20052;-83
2023/03/17 01:50:30;;;;;;;3.72;1.88;;;8.20;97.10;;;;;;4216611;28;20119;-83
2023/03/17 01:52:34;;;;;;;7.95;2.55;;;8.30;97.20;;;;;;4215970;28;20036;-83
2023/03/17 01:55:01;;;;;;;7.43;2.65;;;8.30;97.00;;;;;;4182108;28;20044;-83
2023/03/17 01:57:17;;;;;;;4.40;1.90;;;8.20;96.90;;;;;;4218489;28;20394;-84
2023/03/17 01:59:24;;;;;;;4.05;1.70;;;8.30;96.90;;;;;;4199088;28;20580;-83
2023/03/17 02:01:31;;;;;;;3.15;1.85;;;8.30;96.90;;;;;;4197931;28;20044;-84
2023/03/17 02:03:33;;;;;;;4.80;2.08;;;8.30;96.90;;;;;;4180434;28;20060;-84
2023/03/17 02:05:34;;;;;;;3.97;1.90;;;8.20;97.00;;;;;;4181495;28;20053;-84
2023/03/17 02:07:35;;;;;;;4.00;2.10;;;8.20;96.90;;;;;;4216023;28;20127;-84
2023/03/17 02:09:36;;;;;;;3.80;2.00;;;8.20;97.00;;;;;;4215473;28;20055;-84
2023/03/17 02:11:37;;;;;;;3.53;2.30;;;8.20;97.00;;;;;;4180822;28;20453;-84
2023/03/17 02:13:40;;;;;;;3.72;1.70;;;8.20;96.90;;;;;;4197837;28;20052;-83
2023/03/17 02:15:47;;;;;;;5.95;2.28;;;8.20;96.90;;;;;;4216049;28;20124;-83
2023/03/17 02:17:48;;;;;;;3.70;2.00;;;8.20;96.90;;;;;;4208126;28;20048;-83
2023/03/17 02:19:51;;;;;;;5.78;1.77;;;8.00;96.70;;;;;;4198000;28;20048;-83
2023/03/17 02:21:55;;;;;;;4.00;2.35;;;8.20;96.70;;;;;;4215151;28;20044;-84
2023/03/17 02:23:59;;;;;;;5.55;2.28;;;8.20;96.70;;;;;;4232868;28;20399;-84
2023/03/17 02:26:04;;;;;;;4.47;2.10;;;8.20;96.70;;;;;;4198051;28;20048;-84
2023/03/17 02:28:15;;;;;;;6.65;1.83;;;8.20;96.70;;;;;;4232728;28;20078;-84
2023/03/17 02:30:18;;;;;;;6.35;2.50;;;8.20;96.70;;;;;;4233016;28;20407;-84
2023/03/17 02:32:20;;;;;;;5.10;2.33;;;8.20;96.70;;;;;;4232187;28;20415;-84
2023/03/17 02:34:22;;;;;;;3.25;1.88;;;8.10;96.70;;;;;;4228472;28;20148;-83
2023/03/17 02:36:23;;;;;;;5.35;1.70;;;8.10;96.70;;;;;;4215186;28;20082;-84
2023/03/17 02:38:24;;;;;;;5.40;2.40;;;8.20;96.70;;;;;;4233012;28;20094;-84
2023/03/17 02:40:26;;;;;;;4.65;1.73;;;7.50;96.50;;;;;;4233686;28;20040;-84
2023/03/17 02:42:27;;;;;;;3.50;2.05;;;8.10;96.70;;;;;;4214598;28;20048;-84
2023/03/17 02:44:28;;;;;;;3.40;1.70;;;8.10;96.80;;;;;;4198117;28;20060;-84
2023/03/17 02:46:29;;;;;;;4.65;1.80;;;7.70;96.70;;;;;;4215205;28;20105;-84
2023/03/17 02:48:32;;;;;;;3.53;2.05;;;8.10;96.80;;;;;;4215472;28;20051;-84
2023/03/17 02:50:33;;;;;;;4.30;2.15;;;8.10;96.70;;;;;;4206491;28;20048;-84
2023/03/17 02:52:33;;;;;;;3.83;2.20;;;8.00;96.70;;;;;;4198960;28;20044;-84
2023/03/17 02:54:34;;;;;;;4.55;1.90;;;8.10;96.70;;;;;;4197502;28;20129;-84
2023/03/17 02:56:36;;;;;;;5.15;1.70;;;8.10;96.80;;;;;;4197775;28;20452;-84
2023/03/17 02:58:37;;;;;;;3.42;1.85;;;8.10;96.80;;;;;;4197246;28;20049;-83
2023/03/17 03:00:39;;;;;;;3.25;2.13;;;8.00;96.80;;;;;;4215971;28;20066;-83
2023/03/17 03:02:40;;;;;;;3.95;2.03;;;8.00;96.70;;;;;;4197330;28;20037;-84
2023/03/17 03:04:42;;;;;;;5.00;2.35;;;8.10;96.80;;;;;;4198077;28;20072;-84
2023/03/17 03:06:43;;;;;;;5.28;2.35;;;8.00;96.60;;;;;;4197020;28;20404;-84
2023/03/17 03:08:44;;;;;;;2.67;2.00;;;8.10;96.70;;;;;;4201329;28;20373;-84
2023/03/17 03:10:45;;;;;;;3.90;1.92;;;8.00;96.80;;;;;;4214970;28;20095;-84
2023/03/17 03:12:46;;;;;;;4.28;1.90;;;8.00;96.70;;;;;;4215364;28;20057;-84
2023/03/17 03:14:48;;;;;;;2.47;1.80;;;8.00;96.80;;;;;;4180238;28;20124;-83
2023/03/17 03:16:49;;;;;;;3.22;2.10;;;8.00;96.80;;;;;;4213923;28;20052;-84
2023/03/17 03:18:49;;;;;;;6.50;2.33;;;8.00;96.80;;;;;;4180825;28;20446;-83
2023/03/17 03:20:50;;;;;;;3.83;2.28;;;8.00;96.80;;;;;;4215423;28;20047;-84
2023/03/17 03:22:51;;;;;;;6.25;2.10;;;8.00;96.80;;;;;;4197002;28;20519;-84
2023/03/17 03:24:52;;;;;;;7.25;2.10;;;7.90;96.80;;;;;;4197052;28;20046;-84
2023/03/17 03:26:52;;;;;;;3.45;2.25;;;8.00;96.80;;;;;;4200715;28;20052;-83
2023/03/17 03:28:56;;;;;;;4.57;2.00;;;7.90;96.80;;;;;;4196938;28;20569;-83
2023/03/17 03:30:57;;;;;;;6.55;2.20;;;7.90;96.90;;;;;;4197311;28;20057;-83
2023/03/17 03:32:58;;;;;;;4.40;2.40;;;7.90;96.90;;;;;;4214925;28;20561;-83
2023/03/17 03:34:58;;;;;;;6.60;2.75;;;7.90;96.90;;;;;;4197141;28;20138;-83
2023/03/17 03:37:00;;;;;;;5.22;2.33;;;7.90;96.90;;;;;;4216011;28;20449;-83
2023/03/17 03:39:00;;;;;;;4.30;1.90;;;7.90;96.90;;;;;;4196801;28;20467;-83
2023/03/17 03:41:01;;;;;;;2.50;1.83;;;7.90;96.90;;;;;;4214658;28;20048;-84
2023/03/17 03:43:05;;;;;;;6.15;3.00;;;7.90;97.00;;;;;;4179894;28;20060;-84
2023/03/17 03:45:06;;;;;;;4.63;2.03;;;7.90;96.90;;;;;;4197308;28;20080;-83
2023/03/17 03:47:07;;;;;;;4.05;2.20;;;7.90;96.90;;;;;;4215691;28;20036;-83
2023/03/17 03:49:08;;;;;;;4.57;2.28;;;7.10;96.70;;;;;;4196136;28;20108;-83
2023/03/17 03:51:09;;;;;;;4.53;2.35;;;7.90;97.10;;;;;;4179872;28;20060;-83
2023/03/17 03:53:10;;;;;;;5.00;1.88;;;7.80;96.90;;;;;;4200354;28;20096;-83
2023/03/17 03:55:13;;;;;;;6.13;2.60;;;7.80;97.00;;;;;;4196184;28;20048;-83
2023/03/17 03:57:14;;;;;;;4.78;2.33;;;7.90;97.00;;;;;;4199648;28;20040;-83
2023/03/17 03:59:15;;;;;;;3.75;2.10;;;7.80;97.00;;;;;;4215676;28;20044;-84
2023/03/17 04:01:16;;;;;;;3.33;2.00;;;7.90;97.10;;;;;;4196304;28;20083;-83
2023/03/17 04:03:17;;;;;;;3.45;1.83;;;7.90;97.10;;;;;;4214059;28;20385;-83
2023/03/17 04:05:19;;;;;;;6.28;1.90;;;7.80;97.00;;;;;;4214528;28;20059;-83
2023/03/17 04:07:22;;;;;;;3.80;2.20;;;7.80;97.10;;;;;;4213965;28;20588;-83
2023/03/17 04:09:23;;;;;;;4.72;2.40;;;7.80;97.10;;;;;;4195652;28;20086;-83
2023/03/17 04:11:24;;;;;;;4.30;2.22;;;7.80;97.10;;;;;;4179202;28;20517;-83
2023/03/17 04:13:25;;;;;;;3.42;2.30;;;7.80;97.10;;;;;;4162855;28;20605;-83
2023/03/17 04:15:26;;;;;;;2.83;1.77;;;7.80;97.20;;;;;;4194526;28;20040;-83
2023/03/17 04:17:27;;;;;;;5.63;2.30;;;7.80;97.20;;;;;;4197687;28;20045;-83
2023/03/17 04:19:28;;;;;;;3.42;2.15;;;7.80;97.10;;;;;;4196098;28;20528;-83
2023/03/17 04:21:28;;;;;;;4.82;2.63;;;7.80;97.10;;;;;;4197059;28;20087;-83
2023/03/17 04:23:30;;;;;;;5.00;2.70;;;7.80;97.10;;;;;;4197035;28;20041;-83
2023/03/17 04:25:31;;;;;;;8.73;2.47;;;7.80;97.10;;;;;;4196893;28;20063;-83
2023/03/17 04:27:32;;;;;;;8.35;2.20;;;7.80;97.10;;;;;;4197767;28;20059;-83
2023/03/17 04:29:33;;;;;;;5.53;2.10;;;7.80;97.10;;;;;;4199010;28;20051;-83
2023/03/17 04:31:36;;;;;;;5.18;2.20;;;7.80;97.10;;;;;;4182255;28;20045;-83
2023/03/17 04:33:37;;;;;;;4.95;2.22;;;7.80;97.10;;;;;;4185532;28;20111;-82
2023/03/17 04:35:37;;;;;;;5.55;1.92;;;7.70;97.10;;;;;;4183097;28;20083;-83
2023/03/17 04:37:38;;;;;;;5.50;2.33;;;7.70;97.20;;;;;;4182747;28;20264;-83
2023/03/17 04:39:39;;;;;;;3.35;2.17;;;7.70;97.20;;;;;;4183705;28;20041;-83
2023/03/17 04:41:40;;;;;;;2.95;1.70;;;7.70;97.20;;;;;;4183212;28;20048;-84
2023/03/17 04:43:41;;;;;;;5.93;2.05;;;7.70;97.10;;;;;;4182976;28;20048;-83
2023/03/17 04:45:42;;;;;;;4.28;2.67;;;7.70;97.20;;;;;;4183876;28;20037;-83
2023/03/17 04:47:44;;;;;;;4.75;2.55;;;7.70;97.20;;;;;;4182284;28;20128;-83
2023/03/17 04:49:45;;;;;;;3.83;2.00;;;7.70;97.20;;;;;;4189834;28;20049;-83
2023/03/17 04:51:46;;;;;;;5.18;2.10;;;7.70;97.20;;;;;;4177242;28;20049;-83
2023/03/17 04:53:47;;;;;;;3.92;2.25;;;7.70;97.30;;;;;;4200338;28;20499;-83
2023/03/17 04:55:50;;;;;;;5.50;2.00;;;7.60;97.20;;;;;;4200455;28;20074;-83
2023/03/17 04:57:51;;;;;;;4.22;1.90;;;7.60;97.30;;;;;;4198763;28;20045;-83
2023/03/17 04:59:51;;;;;;;4.75;2.67;;;7.60;97.30;;;;;;4198554;28;20539;-83
2023/03/17 05:01:52;;;;;;;5.32;2.42;;;7.60;97.30;;;;;;4199286;28;20137;-83
2023/03/17 05:03:53;;;;;;;5.88;2.00;;;7.60;97.30;;;;;;4199126;28;20585;-83
2023/03/17 05:05:56;;;;;;;5.28;2.08;;;7.50;97.30;;;;;;4200364;28;20040;-83
2023/03/17 05:07:57;;;;;;;5.15;2.25;;;7.60;97.20;;;;;;4192432;28;20041;-83
2023/03/17 05:09:58;;;;;;;6.22;2.30;;;7.60;97.40;;;;;;4181751;28;20455;-83
2023/03/17 05:11:59;;;;;;;4.15;2.20;;;7.60;97.30;;;;;;4210266;28;20546;-83
2023/03/17 05:14:00;;;;;;;5.10;2.22;;;7.60;97.40;;;;;;4216458;28;20040;-84
2023/03/17 05:16:01;;;;;;;3.95;2.22;;;7.50;97.40;;;;;;4198575;28;20048;-84
2023/03/17 05:18:02;;;;;;;5.65;2.20;;;7.50;97.40;;;;;;4216569;28;20397;-83
2023/03/17 05:20:03;;;;;;;10.32;2.60;;;7.60;97.40;;;;;;4181756;28;20080;-83
2023/03/17 05:22:05;;;;;;;4.65;2.40;;;7.50;97.40;;;;;;4197787;28;20412;-83
2023/03/17 05:24:05;;;;;;;3.53;2.42;;;7.50;97.50;;;;;;4201637;28;20037;-83
2023/03/17 05:26:07;;;;;;;4.03;2.30;;;7.50;97.40;;;;;;4216189;28;20542;-83
2023/03/17 05:28:08;;;;;;;4.40;2.03;;;7.50;97.60;;;;;;4198475;28;20132;-83
2023/03/17 05:30:10;;;;;;;6.75;2.47;;;7.50;97.40;;;;;;4198223;28;20044;-83
2023/03/17 05:32:11;;;;;;;4.82;2.50;;;7.50;97.40;;;;;;4214950;28;20055;-83
2023/03/17 05:34:12;;;;;;;4.10;2.17;;;7.50;97.50;;;;;;4232511;28;20043;-83
2023/03/17 05:36:13;;;;;;;6.22;2.15;;;7.50;97.50;;;;;;4233289;28;20044;-82
2023/03/17 05:38:14;;;;;;;4.07;2.30;;;7.50;97.50;;;;;;4214924;28;20424;-83
2023/03/17 05:40:15;;;;;;;4.40;1.90;;;7.60;97.50;;;;;;4232732;28;20075;-82
2023/03/17 05:42:16;;;;;;;5.15;2.20;;;7.60;97.50;;;;;;4197931;28;20535;-83
2023/03/17 05:44:17;;;;;;;4.22;2.22;;;7.60;97.50;;;;;;4226962;28;20054;-83
2023/03/17 05:46:19;;;;;;;4.68;2.47;;;7.60;97.60;;;;;;4214963;28;20514;-83
2023/03/17 05:48:19;;;;;;;6.43;2.40;;;7.60;97.50;;;;;;4232658;28;20070;-83
2023/03/17 05:50:21;;;;;;;5.22;2.42;;;7.60;97.50;;;;;;4233141;28;20044;-83
2023/03/17 05:52:21;;;;;;;7.32;2.40;;;7.60;97.50;;;;;;4233308;28;20376;-82
2023/03/17 05:54:22;;;;;;;5.85;2.40;;;7.60;97.50;;;;;;4233009;28;20042;-82
2023/03/17 05:56:25;;;;;;;2.50;1.90;;;7.60;97.60;;;;;;4232949;28;20055;-82
2023/03/17 05:58:26;;;;;;;5.47;2.25;;;7.70;97.60;;;;;;4215691;28;20047;-81
2023/03/17 06:00:27;;;;;;;2.78;1.90;;;7.70;97.50;;;;;;4231032;28;20112;-83
2023/03/17 06:02:29;;;;;;;4.97;2.55;;;7.70;97.60;;;;;;4198154;28;20121;-83
2023/03/17 06:04:29;;;;;;;6.05;2.20;;;7.70;97.50;;;;;;4216852;28;20399;-83
2023/03/17 06:06:31;;;;;;;4.22;2.08;;;7.80;97.50;;;;;;4198784;28;20044;-82
2023/03/17 06:08:31;;;;;;;4.20;2.25;;;7.80;97.40;;;;;;4201348;28;20102;-83
2023/03/17 06:10:32;;;;;;;4.70;2.00;;;7.50;97.30;;;;;;4222349;28;20064;-82
2023/03/17 06:12:33;;;;;;;5.40;2.38;;;7.80;97.40;;;;;;4228940;28;20096;-82
2023/03/17 06:14:35;;;;;;;6.78;2.58;;;7.80;97.40;;;;;;4247663;28;20043;-81
2023/03/17 06:16:35;;;;;;;6.82;2.83;;;7.90;97.30;;;;;;4248853;28;20036;-82
2023/03/17 06:18:37;;;;;;;5.15;2.00;;;7.90;97.30;;;;;;4236206;28;20051;-82
2023/03/17 06:20:38;;;;;;;6.43;2.53;;;7.90;97.30;;;;;;4236333;28;20138;-82
2023/03/17 06:22:39;;;;;;;4.70;2.10;;;7.90;97.20;;;;;;4236035;28;20040;-82
2023/03/17 06:24:40;;;;;;;5.20;2.42;;;8.00;97.20;;;;;;4252987;28;20034;-82
2023/03/17 06:26:42;;;;;;;6.70;2.53;;;8.00;97.20;;;;;;4253515;28;20032;-82
2023/03/17 06:28:43;;;;;;;3.45;2.50;;;8.00;97.20;;;;;;4253192;28;20034;-82
2023/03/17 06:30:43;;;;;;;5.25;2.40;;;8.00;97.20;;;;;;4253770;28;20087;-83
2023/03/17 06:32:44;;;;;;;4.97;2.40;;;8.10;97.20;;;;;;4247772;28;20035;-82
2023/03/17 06:34:45;;;;;;;3.63;1.98;;;8.10;97.20;;;;;;4227330;28;20073;-83
2023/03/17 06:36:59;;;;;;;7.55;2.50;;;8.10;97.20;;;;;;4236883;28;20052;-83
2023/03/17 06:39:01;;;;;;;5.18;2.17;;;8.10;97.20;;;;;;4228689;28;20048;-83
2023/03/17 06:41:02;;;;;;;6.70;2.50;;;8.20;97.20;;;;;;4198113;28;20059;-83
2023/03/17 06:43:03;;;;;;;3.75;1.90;;;7.60;97.00;;;;;;4200754;28;20056;-82
2023/03/17 06:45:04;;;;;;;3.75;2.03;;;8.20;97.10;;;;;;4232799;28;20503;-82
2023/03/17 06:47:05;;;;;;;4.75;2.13;;;8.20;97.00;;;;;;4215139;28;20084;-84
2023/03/17 06:49:06;;;;;;;8.02;2.53;;;8.20;97.10;;;;;;4218012;28;20105;-82
2023/03/17 06:51:08;;;;;;;3.45;2.08;;;8.30;97.10;;;;;;4216262;28;20174;-84
2023/03/17 06:53:08;;;;;;;5.65;2.20;;;8.30;97.20;;;;;;4214419;28;20547;-85
2023/03/17 06:55:09;;;;;;;3.97;2.30;;;8.30;97.20;;;;;;4182842;28;20077;-83
2023/03/17 06:57:11;;;;;;;8.52;2.42;;;8.30;97.00;;;;;;4217176;28;20097;-84
2023/03/17 06:59:12;;;;;;;7.32;2.53;;;8.30;97.00;;;;;;4198719;28;20124;-84
2023/03/17 07:01:13;;;;;;;5.88;2.63;;;8.30;97.00;;;;;;4217735;28;20487;-85
2023/03/17 07:03:15;;;;;;;4.90;2.13;;;8.40;97.10;;;;;;4183278;28;20045;-85
2023/03/17 07:05:16;;;;;;;4.57;2.22;;;8.30;96.90;;;;;;4184697;28;20048;-83
2023/03/17 07:07:19;;;;;;;2.97;2.00;;;8.40;97.10;;;;;;4218430;28;20480;-85
2023/03/17 07:09:20;;;;;;;5.13;2.38;;;8.40;97.20;;;;;;4217614;28;20399;-84
2023/03/17 07:11:22;;;;;;;4.60;2.20;;;8.50;97.00;;;;;;4217577;28;20542;-84
2023/03/17 07:13:24;;;;;;;6.15;2.35;;;8.50;97.00;;;;;;4219144;28;20056;-84
2023/03/17 07:15:26;;;;;;;4.40;2.30;;;8.50;96.90;;;;;;4217331;28;20122;-84
2023/03/17 07:17:27;;;;;;;9.65;3.00;;;8.50;96.90;;;;;;4218727;28;20044;-84
2023/03/17 07:19:28;;;;;;;5.85;2.33;;;8.50;97.00;;;;;;4183445;28;20463;-84
2023/03/17 07:21:30;;;;;;;7.68;2.95;;;8.50;97.00;;;;;;4208472;28;20048;-83
2023/03/17 07:23:31;;;;;;;3.35;2.17;;;8.50;96.90;;;;;;4186464;28;20049;-83
2023/03/17 07:25:35;;;;;;;6.47;2.78;;;8.50;96.90;;;;;;4195311;28;20058;-85
2023/03/17 07:27:37;;;;;;;8.82;2.67;;;8.60;96.90;;;;;;4201781;28;20040;-84
2023/03/17 07:29:38;;;;;;;6.38;2.60;;;8.60;96.90;;;;;;4201887;28;20056;-84
2023/03/17 07:31:39;;;;;;;5.32;2.20;;;8.60;96.90;;;;;;4235571;28;20084;-85
2023/03/17 07:33:41;;;;;;;4.28;2.22;;;8.70;96.90;;;;;;4235355;28;20099;-84
2023/03/17 07:35:42;;;;;;;6.30;2.60;;;8.70;96.80;;;;;;4235430;28;20056;-84
2023/03/17 07:37:43;;;;;;;4.88;2.08;;;8.80;96.70;;;;;;4232881;28;20024;-84
2023/03/17 07:39:46;;;;;;;3.22;2.30;;;8.70;96.80;;;;;;4209664;28;20091;-84
2023/03/17 07:41:51;;;;;;;7.20;2.53;;;8.90;96.60;;;;;;4206622;28;20052;-85
2023/03/17 07:43:52;;;;;;;6.13;2.47;;;9.10;96.60;;;;;;4217925;28;20484;-84
2023/03/17 07:45:53;;;;;;;8.85;2.72;;;9.40;96.40;;;;;;4212303;28;20059;-85
2023/03/17 07:47:54;;;;;;;3.38;1.80;;;9.70;96.30;;;;;;4199964;28;20591;-84
2023/03/17 07:49:56;;;;;;;5.57;2.83;;;10.10;96.00;;;;;;4200429;28;20047;-84
2023/03/17 07:51:56;;;;;;;9.10;3.60;;;10.50;95.50;;;;;;4236712;28;20050;-84
2023/03/17 07:54:02;;;;;;;3.25;1.95;;;10.70;95.20;;;;;;4220701;28;20099;-84
2023/03/17 07:56:03;;;;;;;4.70;2.65;;;10.70;94.90;;;;;;4181654;28;20049;-84
2023/03/17 07:58:05;;;;;;;4.57;2.20;;;10.90;94.70;;;;;;4215392;28;20093;-84
2023/03/17 08:00:12;;;;;;;3.88;2.10;;;11.30;94.60;;;;;;4215454;28;20582;-84
2023/03/17 08:02:15;;;;;;;9.43;2.50;;;11.40;94.20;;;;;;4184001;28;20041;-84
2023/03/17 08:04:16;;;;;;;6.85;2.50;;;11.00;94.00;;;;;;4214993;28;20046;-85
2023/03/17 08:06:16;;;;;;;6.25;2.60;;;10.80;94.40;;;;;;4214716;28;20075;-85
2023/03/17 08:08:20;;;;;;;7.10;2.58;;;10.70;94.40;;;;;;4179840;28;20090;-84
2023/03/17 08:10:21;;;;;;;3.40;1.70;;;10.60;94.70;;;;;;4214604;28;20511;-84
2023/03/17 08:12:24;;;;;;;6.40;2.42;;;10.60;94.70;;;;;;4215055;28;20054;-84
2023/03/17 08:14:25;;;;;;;4.72;2.38;;;10.50;94.40;;;;;;4180523;28;20044;-85
2023/03/17 08:16:26;;;;;;;6.47;3.30;;;10.50;94.80;;;;;;4213613;28;20040;-84
2023/03/17 08:18:27;;;;;;;5.05;1.88;;;10.40;94.80;;;;;;4218251;28;20485;-84
2023/03/17 08:20:28;;;;;;;5.50;2.60;;;10.40;94.90;;;;;;4214792;28;20044;-85
2023/03/17 08:22:29;;;;;;;4.32;2.22;;;10.40;95.00;;;;;;4214046;28;20093;-85
2023/03/17 08:24:29;;;;;;;5.50;2.72;;;10.40;94.90;;;;;;4179944;28;20041;-85
2023/03/17 08:26:31;;;;;;;3.33;1.88;;;10.40;94.80;;;;;;4213937;28;20093;-85
2023/03/17 08:28:31;;;;;;;3.50;1.98;;;10.30;95.00;;;;;;4179456;28;20044;-85
2023/03/17 08:30:33;;;;;;;4.43;2.45;;;9.60;94.80;;;;;;4214206;28;20050;-85
2023/03/17 08:32:33;;;;;;;5.22;2.00;;;10.20;94.90;;;;;;4195862;28;20106;-84
2023/03/17 08:34:35;;;;;;;5.32;2.13;;;10.20;94.90;;;;;;4213985;28;20044;-84
2023/03/17 08:36:35;;;;;;;3.60;2.42;;;10.20;94.80;;;;;;4218109;28;20036;-85
2023/03/17 08:38:37;;;;;;;6.68;2.33;;;10.10;95.00;;;;;;4230935;28;20039;-84
2023/03/17 08:40:39;;;;;;;7.70;2.42;;;10.10;94.90;;;;;;4226217;28;20040;-85
2023/03/17 08:42:41;;;;;;;5.10;2.50;;;10.10;94.90;;;;;;4194774;28;20111;-83
2023/03/17 08:44:42;;;;;;;4.00;1.98;;;10.10;95.00;;;;;;4231057;28;20051;-85
2023/03/17 08:46:43;;;;;;;7.18;2.35;;;10.00;95.00;;;;;;4221107;28;20404;-84
2023/03/17 08:48:46;;;;;;;5.95;2.33;;;10.10;95.00;;;;;;4225184;28;20047;-84
2023/03/17 08:50:47;;;;;;;6.75;2.58;;;10.10;95.00;;;;;;4213353;28;20063;-84
2023/03/17 08:52:50;;;;;;;5.32;2.67;;;10.10;95.10;;;;;;4213497;28;20056;-84
2023/03/17 08:54:53;;;;;;;6.20;2.20;;;10.10;95.10;;;;;;4231853;28;20040;-83
2023/03/17 08:56:54;;;;;;;4.25;2.38;;;10.20;95.00;;;;;;4232413;28;20094;-83
2023/03/17 08:58:55;;;;;;;5.97;2.40;;;10.30;95.00;;;;;;4214217;28;20048;-83
2023/03/17 09:01:02;;;;;;;5.45;2.63;;;10.40;94.90;;;;;;4232100;28;20122;-83
2023/03/17 09:03:02;;;;;;;6.22;2.35;;;9.90;94.70;;;;;;4232167;28;20083;-84
2023/03/17 09:05:05;;;;;;;6.18;2.95;;;10.60;94.70;;;;;;4232723;28;20047;-83
2023/03/17 09:07:06;;;;;;;5.05;2.38;;;10.90;94.50;;;;;;4231791;28;20043;-83
2023/03/17 09:09:07;;;;;;;6.68;2.20;;;10.30;94.10;;;;;;4232114;28;20055;-84
2023/03/17 09:11:10;;;;;;;4.68;2.58;;;11.00;94.00;;;;;;4213504;28;20534;-84
2023/03/17 09:13:11;;;;;;;9.00;2.75;;;11.40;93.80;;;;;;4232150;28;20105;-82
2023/03/17 09:15:13;;;;;;;3.53;2.30;;;11.70;93.70;;;;;;4216400;28;20450;-83
2023/03/17 09:17:14;;;;;;;5.50;2.80;;;11.80;93.40;;;;;;4235929;28;20039;-83
2023/03/17 09:19:15;;;;;;;4.15;2.45;;;12.10;93.40;;;;;;4237460;28;20123;-85
2023/03/17 09:21:16;;;;;;;3.75;1.90;;;;;;;;;;4217770;28;20044;-82
2023/03/17 09:23:17;;;;;;;3.45;1.70;;;13.00;92.50;;;;;;4236556;28;20040;-83
2023/03/17 09:25:18;;;;;;;4.43;2.35;;;13.90;92.70;;;;;;4202623;28;20043;-83
2023/03/17 09:27:19;;;;;;;3.60;2.10;;;14.90;91.30;;;;;;4199741;28;20051;-83
2023/03/17 09:29:21;;;;;;;5.80;2.42;;;15.20;90.30;;;;;;4222894;28;20484;-84
2023/03/17 09:31:21;;;;;;;5.90;2.42;;;15.20;90.00;;;;;;4182384;28;20049;-84
2023/03/17 09:33:22;;;;;;;5.72;2.25;;;15.00;89.90;;;;;;4199247;28;20044;-85
2023/03/17 09:35:24;;;;;;;7.00;3.08;;;14.50;89.70;;;;;;4234755;28;20073;-84
2023/03/17 09:37:25;;;;;;;5.97;2.58;;;14.20;90.00;;;;;;4246164;28;20034;-84
2023/03/17 09:39:26;;;;;;;5.40;2.75;;;14.30;89.90;;;;;;4248610;28;20039;-84
2023/03/17 09:41:51;;;;;;;5.15;2.80;;;14.60;89.90;;;;;;4229485;28;20395;-84
2023/03/17 09:44:14;;;;;;;5.13;2.08;;;15.30;88.20;;;;;;4218424;28;20040;-85
2023/03/17 09:46:36;;;;;;;7.18;2.15;;;15.80;83.90;;;;;;4217724;28;20055;-84
2023/03/17 09:48:40;;;;;;;6.68;2.17;;;15.80;86.80;;;;;;4217422;28;20062;-84
2023/03/17 09:50:53;;;;;;;5.35;2.30;;;16.00;85.60;;;;;;4218359;28;20040;-84
2023/03/17 09:52:57;;;;;;;7.40;2.90;;;16.40;85.40;;;;;;4216706;28;20040;-84
2023/03/17 09:54:59;;;;;;;3.97;2.20;;;16.70;84.60;;;;;;4216927;28;20082;-84
2023/03/17 09:57:12;;;;;;;6.00;2.60;;;16.70;84.10;;;;;;4222698;28;20110;-85
2023/03/17 09:59:29;;;;;;;4.80;2.38;;;;;;;;;;4226670;28;20040;-85
2023/03/17 10:01:31;;;;;;;4.75;2.20;;;;;;;;;;4219940;28;20051;-85
2023/03/17 10:03:33;;;;;;;5.30;2.53;;;;;;;;;;4225141;28;20036;-85
2023/03/17 10:05:35;;;;;;;4.97;2.28;;;;;;;;;;4216401;28;20044;-84
2023/03/17 10:07:55;;;;;;;10.15;2.95;;;;;;;;;;4216183;28;20115;-84
2023/03/17 10:10:01;;;;;;;5.95;2.67;;;;;;;;;;4216803;28;20047;-84
2023/03/17 10:12:10;;;;;;;3.80;2.45;;;;;;;;;;4201161;28;20056;-84
2023/03/17 10:14:29;;;;;;;4.40;2.30;;;;;;;;;;4215981;28;20048;-84
2023/03/17 10:16:30;;;;;;;4.40;2.30;;;;;;;;;;4231486;28;20078;-84
2023/03/17 10:18:38;;;;;;;6.72;2.42;;;;;;;;;;4214538;28;20060;-84
2023/03/17 10:20:54;;;;;;;5.07;2.60;;;;;;;;;;4232824;28;20131;-84
2023/03/17 10:22:56;;;;;;;5.97;2.45;;;;;;;;;;4214875;28;20051;-84
2023/03/17 10:25:01;;;;;;;5.03;2.53;;;;;;;;;;4215522;28;20455;-84
2023/03/17 10:27:06;;;;;;;3.85;2.25;;;16.70;82.90;;;;;;4214347;28;20052;-84
2023/03/17 10:29:14;;;;;;;4.45;2.38;;;;;;;;;;4232758;28;20047;-83
2023/03/17 10:31:20;;;;;;;5.15;2.55;;;;;;;;;;4229778;28;20036;-83
2023/03/17 10:33:22;;;;;;;4.68;2.45;;;;;;;;;;4198346;28;20123;-83
2023/03/17 10:35:24;;;;;;;4.47;2.70;;;;;;;;;;4215018;28;20040;-83
2023/03/17 10:37:28;;;;;;;5.07;2.65;;;;;;;;;;4215359;28;20488;-83
2023/03/17 10:39:29;;;;;;;6.18;2.65;;;;;;;;;;4220084;28;20055;-83
2023/03/17 10:41:32;;;;;;;5.22;2.22;;;;;;;;;;4217379;28;20454;-83
2023/03/17 10:43:44;;;;;;;5.65;2.20;;;16.70;82.50;;;;;;4214908;28;20075;-83
2023/03/17 10:45:56;;;;;;;9.27;2.50;;;17.30;80.00;;;;;;4215003;28;20484;-84
2023/03/17 10:47:59;;;;;;;4.97;2.30;;;17.50;79.60;;;;;;4197743;28;20062;-84